sensor_id;sensor_type;location;lat;lon;timestamp;P1;durP1;ratioP1;P2;durP2;ratioP2
60241;SDS011;46103;52.076;113.488;2022-10-26T00:02:48;9.80;;;4.22;;
60241;SDS011;46103;52.076;113.488;2022-10-26T00:05:52;14.20;;;4.18;;
60241;SDS011;46103;52.076;113.488;2022-10-26T00:08:55;7.35;;;3.47;;
60241;SDS011;46103;52.076;113.488;2022-10-26T00:12:00;10.25;;;3.92;;
60241;SDS011;46103;52.076;113.488;2022-10-26T00:15:04;9.57;;;4.28;;
60241;SDS011;46103;52.076;113.488;2022-10-26T00:18:08;10.07;;;4.03;;
60241;SDS011;46103;52.076;113.488;2022-10-26T00:21:12;17.02;;;5.68;;
60241;SDS011;46103;52.076;113.488;2022-10-26T00:24:16;16.13;;;6.05;;
60241;SDS011;46103;52.076;113.488;2022-10-26T00:27:20;15.07;;;5.68;;
60241;SDS011;46103;52.076;113.488;2022-10-26T00:30:23;12.88;;;4.70;;
60241;SDS011;46103;52.076;113.488;2022-10-26T00:33:28;17.67;;;5.47;;
60241;SDS011;46103;52.076;113.488;2022-10-26T00:36:32;9.68;;;3.85;;
60241;SDS011;46103;52.076;113.488;2022-10-26T00:39:36;11.38;;;4.68;;
60241;SDS011;46103;52.076;113.488;2022-10-26T00:42:39;11.60;;;4.18;;
60241;SDS011;46103;52.076;113.488;2022-10-26T00:45:43;16.27;;;5.70;;
60241;SDS011;46103;52.076;113.488;2022-10-26T00:48:52;16.48;;;6.13;;
60241;SDS011;46103;52.076;113.488;2022-10-26T00:52:11;21.15;;;7.20;;
60241;SDS011;46103;52.076;113.488;2022-10-26T00:55:15;20.55;;;7.28;;
60241;SDS011;46103;52.076;113.488;2022-10-26T00:58:23;16.65;;;6.70;;
60241;SDS011;46103;52.076;113.488;2022-10-26T01:01:27;12.48;;;4.47;;
60241;SDS011;46103;52.076;113.488;2022-10-26T01:04:33;14.32;;;4.75;;
60241;SDS011;46103;52.076;113.488;2022-10-26T01:07:37;12.35;;;4.78;;
60241;SDS011;46103;52.076;113.488;2022-10-26T01:10:42;13.27;;;4.57;;
60241;SDS011;46103;52.076;113.488;2022-10-26T01:13:46;14.65;;;5.22;;
60241;SDS011;46103;52.076;113.488;2022-10-26T01:16:56;13.30;;;4.13;;
60241;SDS011;46103;52.076;113.488;2022-10-26T01:36:48;13.50;;;5.18;;
60241;SDS011;46103;52.076;113.488;2022-10-26T01:39:59;6.07;;;2.03;;
60241;SDS011;46103;52.076;113.488;2022-10-26T01:43:09;5.88;;;2.60;;
60241;SDS011;46103;52.076;113.488;2022-10-26T01:46:16;20.03;;;9.70;;
60241;SDS011;46103;52.076;113.488;2022-10-26T01:49:22;33.63;;;15.70;;
60241;SDS011;46103;52.076;113.488;2022-10-26T01:52:30;22.95;;;10.57;;
60241;SDS011;46103;52.076;113.488;2022-10-26T02:08:36;5.47;;;3.42;;
60241;SDS011;46103;52.076;113.488;2022-10-26T02:11:50;9.35;;;2.70;;
60241;SDS011;46103;52.076;113.488;2022-10-26T02:15:06;34.88;;;13.98;;
60241;SDS011;46103;52.076;113.488;2022-10-26T02:21:35;21.52;;;6.63;;
60241;SDS011;46103;52.076;113.488;2022-10-26T02:24:43;15.70;;;4.88;;
60241;SDS011;46103;52.076;113.488;2022-10-26T02:27:50;21.17;;;8.27;;
60241;SDS011;46103;52.076;113.488;2022-10-26T02:30:58;16.60;;;6.22;;
60241;SDS011;46103;52.076;113.488;2022-10-26T02:34:06;13.95;;;4.80;;
60241;SDS011;46103;52.076;113.488;2022-10-26T02:37:12;16.33;;;6.35;;
60241;SDS011;46103;52.076;113.488;2022-10-26T02:40:21;21.20;;;7.28;;
60241;SDS011;46103;52.076;113.488;2022-10-26T02:43:28;19.85;;;7.50;;
60241;SDS011;46103;52.076;113.488;2022-10-26T02:46:35;23.40;;;7.55;;
60241;SDS011;46103;52.076;113.488;2022-10-26T02:49:39;16.10;;;6.07;;
60241;SDS011;46103;52.076;113.488;2022-10-26T02:56:01;20.45;;;9.05;;
60241;SDS011;46103;52.076;113.488;2022-10-26T02:59:09;27.67;;;9.63;;
60241;SDS011;46103;52.076;113.488;2022-10-26T03:02:16;33.58;;;9.65;;
60241;SDS011;46103;52.076;113.488;2022-10-26T03:05:23;29.55;;;13.02;;
60241;SDS011;46103;52.076;113.488;2022-10-26T03:08:29;28.65;;;13.48;;
60241;SDS011;46103;52.076;113.488;2022-10-26T03:11:32;29.38;;;12.75;;
60241;SDS011;46103;52.076;113.488;2022-10-26T03:14:36;30.23;;;13.43;;
60241;SDS011;46103;52.076;113.488;2022-10-26T03:17:40;31.83;;;13.95;;
60241;SDS011;46103;52.076;113.488;2022-10-26T03:20:44;29.33;;;10.13;;
60241;SDS011;46103;52.076;113.488;2022-10-26T03:23:47;35.00;;;14.30;;
60241;SDS011;46103;52.076;113.488;2022-10-26T03:26:53;36.08;;;14.63;;
60241;SDS011;46103;52.076;113.488;2022-10-26T03:30:04;33.13;;;14.23;;
60241;SDS011;46103;52.076;113.488;2022-10-26T03:33:12;36.72;;;13.80;;
60241;SDS011;46103;52.076;113.488;2022-10-26T03:36:17;39.83;;;15.40;;
60241;SDS011;46103;52.076;113.488;2022-10-26T03:39:21;37.50;;;16.98;;
60241;SDS011;46103;52.076;113.488;2022-10-26T03:42:32;46.07;;;17.67;;
60241;SDS011;46103;52.076;113.488;2022-10-26T03:45:38;44.88;;;16.33;;
60241;SDS011;46103;52.076;113.488;2022-10-26T03:48:41;46.45;;;20.13;;
60241;SDS011;46103;52.076;113.488;2022-10-26T03:51:45;51.30;;;20.15;;
60241;SDS011;46103;52.076;113.488;2022-10-26T03:54:49;58.45;;;23.40;;
60241;SDS011;46103;52.076;113.488;2022-10-26T03:57:53;55.20;;;25.15;;
60241;SDS011;46103;52.076;113.488;2022-10-26T04:00:57;57.63;;;22.48;;
60241;SDS011;46103;52.076;113.488;2022-10-26T04:04:00;38.03;;;17.73;;
60241;SDS011;46103;52.076;113.488;2022-10-26T04:07:04;45.05;;;19.98;;
60241;SDS011;46103;52.076;113.488;2022-10-26T04:10:08;46.72;;;20.08;;
60241;SDS011;46103;52.076;113.488;2022-10-26T04:13:13;43.28;;;18.98;;
60241;SDS011;46103;52.076;113.488;2022-10-26T04:16:16;40.92;;;19.00;;
60241;SDS011;46103;52.076;113.488;2022-10-26T04:19:21;39.20;;;16.90;;
60241;SDS011;46103;52.076;113.488;2022-10-26T04:22:24;32.72;;;14.10;;
60241;SDS011;46103;52.076;113.488;2022-10-26T04:25:29;29.70;;;9.57;;
60241;SDS011;46103;52.076;113.488;2022-10-26T04:28:34;27.00;;;10.20;;
60241;SDS011;46103;52.076;113.488;2022-10-26T04:31:38;25.77;;;10.50;;
60241;SDS011;46103;52.076;113.488;2022-10-26T04:34:43;47.13;;;10.43;;
60241;SDS011;46103;52.076;113.488;2022-10-26T04:37:47;17.35;;;7.00;;
60241;SDS011;46103;52.076;113.488;2022-10-26T04:40:51;17.67;;;6.88;;
60241;SDS011;46103;52.076;113.488;2022-10-26T04:43:55;18.52;;;5.55;;
60241;SDS011;46103;52.076;113.488;2022-10-26T04:46:59;14.38;;;5.30;;
60241;SDS011;46103;52.076;113.488;2022-10-26T04:50:03;13.93;;;5.43;;
60241;SDS011;46103;52.076;113.488;2022-10-26T04:53:08;8.52;;;3.72;;
60241;SDS011;46103;52.076;113.488;2022-10-26T04:56:12;9.73;;;4.00;;
60241;SDS011;46103;52.076;113.488;2022-10-26T04:59:16;8.57;;;3.60;;
60241;SDS011;46103;52.076;113.488;2022-10-26T05:02:20;9.55;;;3.65;;
60241;SDS011;46103;52.076;113.488;2022-10-26T05:05:25;9.63;;;3.50;;
60241;SDS011;46103;52.076;113.488;2022-10-26T05:08:29;12.48;;;4.03;;
60241;SDS011;46103;52.076;113.488;2022-10-26T05:11:33;10.80;;;3.50;;
60241;SDS011;46103;52.076;113.488;2022-10-26T05:14:36;7.45;;;2.60;;
60241;SDS011;46103;52.076;113.488;2022-10-26T05:17:39;12.77;;;4.22;;
60241;SDS011;46103;52.076;113.488;2022-10-26T05:20:42;7.80;;;2.80;;
60241;SDS011;46103;52.076;113.488;2022-10-26T05:23:50;7.38;;;2.70;;
60241;SDS011;46103;52.076;113.488;2022-10-26T05:26:55;7.18;;;3.15;;
60241;SDS011;46103;52.076;113.488;2022-10-26T05:29:58;8.35;;;2.50;;
60241;SDS011;46103;52.076;113.488;2022-10-26T05:33:01;7.80;;;2.45;;
60241;SDS011;46103;52.076;113.488;2022-10-26T05:36:05;14.90;;;3.88;;
60241;SDS011;46103;52.076;113.488;2022-10-26T05:39:08;4.60;;;2.00;;
60241;SDS011;46103;52.076;113.488;2022-10-26T05:42:11;4.97;;;1.85;;
60241;SDS011;46103;52.076;113.488;2022-10-26T05:45:14;4.63;;;1.60;;
60241;SDS011;46103;52.076;113.488;2022-10-26T05:48:20;4.13;;;1.63;;
60241;SDS011;46103;52.076;113.488;2022-10-26T05:51:24;4.57;;;1.60;;
60241;SDS011;46103;52.076;113.488;2022-10-26T05:54:28;5.65;;;2.10;;
60241;SDS011;46103;52.076;113.488;2022-10-26T05:57:32;5.15;;;1.65;;
60241;SDS011;46103;52.076;113.488;2022-10-26T06:00:35;5.07;;;2.03;;
60241;SDS011;46103;52.076;113.488;2022-10-26T06:07:18;5.47;;;2.15;;
60241;SDS011;46103;52.076;113.488;2022-10-26T06:10:23;5.45;;;2.50;;
60241;SDS011;46103;52.076;113.488;2022-10-26T06:13:27;11.77;;;3.20;;
60241;SDS011;46103;52.076;113.488;2022-10-26T06:26:53;6.55;;;2.00;;
60241;SDS011;46103;52.076;113.488;2022-10-26T06:30:23;4.32;;;2.20;;
60241;SDS011;46103;52.076;113.488;2022-10-26T06:33:28;7.20;;;2.28;;
60241;SDS011;46103;52.076;113.488;2022-10-26T06:36:33;10.10;;;3.40;;
60241;SDS011;46103;52.076;113.488;2022-10-26T06:39:38;7.55;;;2.40;;
60241;SDS011;46103;52.076;113.488;2022-10-26T06:42:45;4.95;;;2.20;;
60241;SDS011;46103;52.076;113.488;2022-10-26T06:45:49;5.20;;;2.10;;
60241;SDS011;46103;52.076;113.488;2022-10-26T06:55:59;7.13;;;2.15;;
60241;SDS011;46103;52.076;113.488;2022-10-26T06:59:05;4.03;;;2.05;;
60241;SDS011;46103;52.076;113.488;2022-10-26T07:02:19;8.43;;;2.25;;
60241;SDS011;46103;52.076;113.488;2022-10-26T07:05:23;8.20;;;2.35;;
60241;SDS011;46103;52.076;113.488;2022-10-26T07:08:27;8.65;;;2.65;;
60241;SDS011;46103;52.076;113.488;2022-10-26T07:11:34;7.23;;;2.13;;
60241;SDS011;46103;52.076;113.488;2022-10-26T07:14:37;10.70;;;2.65;;
60241;SDS011;46103;52.076;113.488;2022-10-26T07:17:45;8.45;;;2.75;;
60241;SDS011;46103;52.076;113.488;2022-10-26T07:20:50;8.25;;;2.95;;
60241;SDS011;46103;52.076;113.488;2022-10-26T07:23:54;12.55;;;3.83;;
60241;SDS011;46103;52.076;113.488;2022-10-26T07:26:58;7.45;;;2.72;;
60241;SDS011;46103;52.076;113.488;2022-10-26T07:30:03;8.00;;;2.72;;
60241;SDS011;46103;52.076;113.488;2022-10-26T07:33:11;9.55;;;2.65;;
60241;SDS011;46103;52.076;113.488;2022-10-26T07:36:16;7.57;;;2.67;;
60241;SDS011;46103;52.076;113.488;2022-10-26T07:39:20;7.70;;;2.70;;
60241;SDS011;46103;52.076;113.488;2022-10-26T07:42:24;7.00;;;2.50;;
60241;SDS011;46103;52.076;113.488;2022-10-26T07:45:28;9.77;;;2.97;;
60241;SDS011;46103;52.076;113.488;2022-10-26T07:48:33;10.07;;;3.10;;
60241;SDS011;46103;52.076;113.488;2022-10-26T07:51:36;5.97;;;2.25;;
60241;SDS011;46103;52.076;113.488;2022-10-26T07:54:40;11.15;;;2.60;;
60241;SDS011;46103;52.076;113.488;2022-10-26T07:57:43;9.18;;;2.85;;
60241;SDS011;46103;52.076;113.488;2022-10-26T08:00:53;7.80;;;2.63;;
60241;SDS011;46103;52.076;113.488;2022-10-26T08:03:58;8.18;;;2.67;;
60241;SDS011;46103;52.076;113.488;2022-10-26T08:07:02;8.75;;;2.47;;
60241;SDS011;46103;52.076;113.488;2022-10-26T08:10:06;11.55;;;2.28;;
60241;SDS011;46103;52.076;113.488;2022-10-26T08:13:10;10.75;;;2.75;;
60241;SDS011;46103;52.076;113.488;2022-10-26T08:16:15;9.57;;;3.25;;
60241;SDS011;46103;52.076;113.488;2022-10-26T08:19:19;11.77;;;3.50;;
60241;SDS011;46103;52.076;113.488;2022-10-26T08:22:23;15.00;;;3.30;;
60241;SDS011;46103;52.076;113.488;2022-10-26T08:25:27;10.75;;;2.97;;
60241;SDS011;46103;52.076;113.488;2022-10-26T08:28:31;10.82;;;2.53;;
60241;SDS011;46103;52.076;113.488;2022-10-26T08:31:35;10.32;;;2.83;;
60241;SDS011;46103;52.076;113.488;2022-10-26T08:34:39;10.63;;;3.30;;
60241;SDS011;46103;52.076;113.488;2022-10-26T08:37:42;10.27;;;2.67;;
60241;SDS011;46103;52.076;113.488;2022-10-26T08:40:47;13.13;;;3.20;;
60241;SDS011;46103;52.076;113.488;2022-10-26T08:43:52;10.25;;;2.80;;
60241;SDS011;46103;52.076;113.488;2022-10-26T08:47:03;16.05;;;3.10;;
60241;SDS011;46103;52.076;113.488;2022-10-26T08:50:30;11.27;;;3.45;;
60241;SDS011;46103;52.076;113.488;2022-10-26T08:53:56;15.25;;;2.97;;
60241;SDS011;46103;52.076;113.488;2022-10-26T08:57:27;14.90;;;3.03;;
60241;SDS011;46103;52.076;113.488;2022-10-26T09:00:38;12.20;;;2.80;;
60241;SDS011;46103;52.076;113.488;2022-10-26T09:03:42;11.48;;;3.53;;
60241;SDS011;46103;52.076;113.488;2022-10-26T09:17:09;15.02;;;3.40;;
60241;SDS011;46103;52.076;113.488;2022-10-26T09:20:56;14.40;;;3.92;;
60241;SDS011;46103;52.076;113.488;2022-10-26T09:24:17;18.52;;;3.05;;
60241;SDS011;46103;52.076;113.488;2022-10-26T09:27:27;14.52;;;2.75;;
60241;SDS011;46103;52.076;113.488;2022-10-26T09:30:32;7.65;;;2.42;;
60241;SDS011;46103;52.076;113.488;2022-10-26T09:33:38;12.43;;;2.92;;
60241;SDS011;46103;52.076;113.488;2022-10-26T09:36:46;8.32;;;2.17;;
60241;SDS011;46103;52.076;113.488;2022-10-26T09:39:59;4.38;;;1.92;;
60241;SDS011;46103;52.076;113.488;2022-10-26T09:46:33;5.07;;;1.95;;
60241;SDS011;46103;52.076;113.488;2022-10-26T09:49:48;11.00;;;2.78;;
60241;SDS011;46103;52.076;113.488;2022-10-26T09:52:55;11.18;;;3.78;;
60241;SDS011;46103;52.076;113.488;2022-10-26T09:56:00;6.55;;;2.13;;
60241;SDS011;46103;52.076;113.488;2022-10-26T09:59:13;7.28;;;2.08;;
60241;SDS011;46103;52.076;113.488;2022-10-26T10:05:34;4.18;;;1.80;;
60241;SDS011;46103;52.076;113.488;2022-10-26T10:09:09;3.67;;;1.70;;
60241;SDS011;46103;52.076;113.488;2022-10-26T10:12:24;6.60;;;1.80;;
60241;SDS011;46103;52.076;113.488;2022-10-26T10:15:27;10.23;;;1.67;;
60241;SDS011;46103;52.076;113.488;2022-10-26T10:18:31;5.03;;;1.80;;
60241;SDS011;46103;52.076;113.488;2022-10-26T10:21:40;7.80;;;1.75;;
60241;SDS011;46103;52.076;113.488;2022-10-26T10:24:53;6.60;;;2.42;;
60241;SDS011;46103;52.076;113.488;2022-10-26T10:28:23;13.07;;;2.40;;
60241;SDS011;46103;52.076;113.488;2022-10-26T10:31:29;6.25;;;2.50;;
60241;SDS011;46103;52.076;113.488;2022-10-26T10:34:34;7.55;;;2.13;;
60241;SDS011;46103;52.076;113.488;2022-10-26T10:37:39;10.32;;;3.58;;
60241;SDS011;46103;52.076;113.488;2022-10-26T10:40:49;7.63;;;2.55;;
60241;SDS011;46103;52.076;113.488;2022-10-26T10:44:06;10.52;;;3.83;;
60241;SDS011;46103;52.076;113.488;2022-10-26T10:47:28;11.25;;;3.25;;
60241;SDS011;46103;52.076;113.488;2022-10-26T10:50:34;28.73;;;11.47;;
60241;SDS011;46103;52.076;113.488;2022-10-26T10:56:50;42.33;;;16.85;;
60241;SDS011;46103;52.076;113.488;2022-10-26T11:00:07;35.33;;;12.80;;
60241;SDS011;46103;52.076;113.488;2022-10-26T11:06:35;45.45;;;14.40;;
60241;SDS011;46103;52.076;113.488;2022-10-26T11:09:42;51.35;;;15.95;;
60241;SDS011;46103;52.076;113.488;2022-10-26T11:12:53;40.10;;;11.50;;
60241;SDS011;46103;52.076;113.488;2022-10-26T11:16:12;53.33;;;19.85;;
60241;SDS011;46103;52.076;113.488;2022-10-26T11:26:24;50.00;;;18.33;;
60241;SDS011;46103;52.076;113.488;2022-10-26T11:29:46;57.95;;;19.90;;
60241;SDS011;46103;52.076;113.488;2022-10-26T11:33:00;34.72;;;13.30;;
60241;SDS011;46103;52.076;113.488;2022-10-26T11:36:10;26.60;;;9.70;;
60241;SDS011;46103;52.076;113.488;2022-10-26T11:42:48;46.83;;;16.52;;
60241;SDS011;46103;52.076;113.488;2022-10-26T11:55:53;93.95;;;34.53;;
60241;SDS011;46103;52.076;113.488;2022-10-26T11:58:58;70.80;;;26.33;;
60241;SDS011;46103;52.076;113.488;2022-10-26T12:02:09;71.25;;;27.17;;
60241;SDS011;46103;52.076;113.488;2022-10-26T12:05:44;81.57;;;29.65;;
60241;SDS011;46103;52.076;113.488;2022-10-26T12:08:56;73.13;;;24.27;;
60241;SDS011;46103;52.076;113.488;2022-10-26T12:19:07;60.38;;;21.73;;
60241;SDS011;46103;52.076;113.488;2022-10-26T12:22:19;49.53;;;19.85;;
60241;SDS011;46103;52.076;113.488;2022-10-26T12:25:28;56.75;;;20.17;;
60241;SDS011;46103;52.076;113.488;2022-10-26T12:31:40;55.40;;;21.00;;
60241;SDS011;46103;52.076;113.488;2022-10-26T12:37:50;49.65;;;19.58;;
60241;SDS011;46103;52.076;113.488;2022-10-26T12:48:02;39.97;;;16.33;;
60241;SDS011;46103;52.076;113.488;2022-10-26T12:54:35;49.45;;;18.58;;
60241;SDS011;46103;52.076;113.488;2022-10-26T12:57:59;44.33;;;17.27;;
60241;SDS011;46103;52.076;113.488;2022-10-26T13:01:13;48.92;;;17.33;;
60241;SDS011;46103;52.076;113.488;2022-10-26T13:08:09;45.75;;;19.05;;
60241;SDS011;46103;52.076;113.488;2022-10-26T13:11:36;55.05;;;19.45;;
60241;SDS011;46103;52.076;113.488;2022-10-26T13:15:04;63.33;;;23.08;;
60241;SDS011;46103;52.076;113.488;2022-10-26T13:18:19;75.88;;;26.58;;
60241;SDS011;46103;52.076;113.488;2022-10-26T13:21:23;111.93;;;35.83;;
60241;SDS011;46103;52.076;113.488;2022-10-26T13:24:29;91.97;;;31.75;;
60241;SDS011;46103;52.076;113.488;2022-10-26T13:30:41;70.10;;;23.73;;
60241;SDS011;46103;52.076;113.488;2022-10-26T13:33:46;75.90;;;25.35;;
60241;SDS011;46103;52.076;113.488;2022-10-26T13:40:17;56.53;;;19.25;;
60241;SDS011;46103;52.076;113.488;2022-10-26T13:43:31;77.05;;;27.38;;
60241;SDS011;46103;52.076;113.488;2022-10-26T13:46:38;69.97;;;25.67;;
60241;SDS011;46103;52.076;113.488;2022-10-26T13:49:47;67.05;;;24.35;;
60241;SDS011;46103;52.076;113.488;2022-10-26T13:52:58;62.85;;;21.35;;
60241;SDS011;46103;52.076;113.488;2022-10-26T13:59:23;57.90;;;22.70;;
60241;SDS011;46103;52.076;113.488;2022-10-26T14:02:28;58.90;;;21.17;;
60241;SDS011;46103;52.076;113.488;2022-10-26T14:05:33;62.95;;;21.58;;
60241;SDS011;46103;52.076;113.488;2022-10-26T14:08:37;57.10;;;21.85;;
60241;SDS011;46103;52.076;113.488;2022-10-26T14:11:53;61.75;;;19.50;;
60241;SDS011;46103;52.076;113.488;2022-10-26T14:15:04;50.28;;;19.70;;
60241;SDS011;46103;52.076;113.488;2022-10-26T14:18:20;41.28;;;16.00;;
60241;SDS011;46103;52.076;113.488;2022-10-26T14:21:29;44.13;;;16.63;;
60241;SDS011;46103;52.076;113.488;2022-10-26T14:24:34;35.45;;;13.05;;
60241;SDS011;46103;52.076;113.488;2022-10-26T14:27:48;45.17;;;14.52;;
60241;SDS011;46103;52.076;113.488;2022-10-26T14:30:51;43.97;;;15.75;;
60241;SDS011;46103;52.076;113.488;2022-10-26T14:33:57;40.35;;;13.75;;
60241;SDS011;46103;52.076;113.488;2022-10-26T14:37:02;40.90;;;15.27;;
60241;SDS011;46103;52.076;113.488;2022-10-26T14:40:11;52.95;;;20.13;;
60241;SDS011;46103;52.076;113.488;2022-10-26T14:43:20;47.38;;;17.67;;
60241;SDS011;46103;52.076;113.488;2022-10-26T14:46:26;43.27;;;16.60;;
60241;SDS011;46103;52.076;113.488;2022-10-26T14:49:34;39.42;;;12.85;;
60241;SDS011;46103;52.076;113.488;2022-10-26T14:52:38;41.55;;;16.35;;
60241;SDS011;46103;52.076;113.488;2022-10-26T14:55:47;45.50;;;15.85;;
60241;SDS011;46103;52.076;113.488;2022-10-26T14:58:52;43.47;;;17.90;;
60241;SDS011;46103;52.076;113.488;2022-10-26T15:02:03;40.47;;;15.40;;
60241;SDS011;46103;52.076;113.488;2022-10-26T15:08:45;42.50;;;14.50;;
60241;SDS011;46103;52.076;113.488;2022-10-26T15:11:58;54.47;;;15.98;;
60241;SDS011;46103;52.076;113.488;2022-10-26T15:18:25;41.20;;;15.73;;
60241;SDS011;46103;52.076;113.488;2022-10-26T15:21:38;41.08;;;16.50;;
60241;SDS011;46103;52.076;113.488;2022-10-26T15:24:52;48.03;;;17.15;;
60241;SDS011;46103;52.076;113.488;2022-10-26T15:28:10;54.05;;;19.42;;
60241;SDS011;46103;52.076;113.488;2022-10-26T15:31:31;53.40;;;18.20;;
60241;SDS011;46103;52.076;113.488;2022-10-26T15:34:35;68.47;;;23.73;;
60241;SDS011;46103;52.076;113.488;2022-10-26T15:37:39;76.38;;;26.60;;
60241;SDS011;46103;52.076;113.488;2022-10-26T15:40:42;67.47;;;22.40;;
60241;SDS011;46103;52.076;113.488;2022-10-26T15:43:46;69.97;;;22.92;;
60241;SDS011;46103;52.076;113.488;2022-10-26T15:46:50;63.65;;;22.08;;
60241;SDS011;46103;52.076;113.488;2022-10-26T15:49:54;58.55;;;21.20;;
60241;SDS011;46103;52.076;113.488;2022-10-26T15:53:01;45.00;;;17.40;;
60241;SDS011;46103;52.076;113.488;2022-10-26T15:56:15;48.08;;;18.13;;
60241;SDS011;46103;52.076;113.488;2022-10-26T15:59:21;50.20;;;19.75;;
60241;SDS011;46103;52.076;113.488;2022-10-26T16:02:24;139.82;;;44.75;;
60241;SDS011;46103;52.076;113.488;2022-10-26T16:05:29;147.90;;;47.10;;
60241;SDS011;46103;52.076;113.488;2022-10-26T16:08:32;197.68;;;63.95;;
60241;SDS011;46103;52.076;113.488;2022-10-26T16:11:35;209.48;;;61.63;;
60241;SDS011;46103;52.076;113.488;2022-10-26T16:14:40;156.35;;;46.72;;
60241;SDS011;46103;52.076;113.488;2022-10-26T16:18:07;108.90;;;36.13;;
60241;SDS011;46103;52.076;113.488;2022-10-26T16:21:14;103.65;;;33.95;;
60241;SDS011;46103;52.076;113.488;2022-10-26T16:24:20;91.63;;;29.17;;
60241;SDS011;46103;52.076;113.488;2022-10-26T16:27:24;74.57;;;24.58;;
60241;SDS011;46103;52.076;113.488;2022-10-26T16:30:28;70.10;;;22.65;;
60241;SDS011;46103;52.076;113.488;2022-10-26T16:33:33;62.25;;;22.23;;
60241;SDS011;46103;52.076;113.488;2022-10-26T16:36:37;62.78;;;22.15;;
60241;SDS011;46103;52.076;113.488;2022-10-26T16:39:41;63.60;;;21.00;;
60241;SDS011;46103;52.076;113.488;2022-10-26T16:42:45;57.10;;;19.83;;
60241;SDS011;46103;52.076;113.488;2022-10-26T16:45:50;47.25;;;19.05;;
60241;SDS011;46103;52.076;113.488;2022-10-26T16:48:54;54.47;;;19.10;;
60241;SDS011;46103;52.076;113.488;2022-10-26T16:51:58;47.08;;;18.27;;
60241;SDS011;46103;52.076;113.488;2022-10-26T16:55:02;51.05;;;16.90;;
60241;SDS011;46103;52.076;113.488;2022-10-26T16:58:07;54.35;;;18.08;;
60241;SDS011;46103;52.076;113.488;2022-10-26T17:01:11;45.85;;;17.60;;
60241;SDS011;46103;52.076;113.488;2022-10-26T17:04:20;54.10;;;18.13;;
60241;SDS011;46103;52.076;113.488;2022-10-26T17:07:25;38.45;;;14.57;;
60241;SDS011;46103;52.076;113.488;2022-10-26T17:10:29;38.13;;;13.73;;
60241;SDS011;46103;52.076;113.488;2022-10-26T17:13:33;39.88;;;15.13;;
60241;SDS011;46103;52.076;113.488;2022-10-26T17:16:38;36.22;;;13.77;;
60241;SDS011;46103;52.076;113.488;2022-10-26T17:19:42;45.92;;;17.63;;
60241;SDS011;46103;52.076;113.488;2022-10-26T17:22:46;79.70;;;25.70;;
60241;SDS011;46103;52.076;113.488;2022-10-26T17:25:51;51.50;;;17.08;;
60241;SDS011;46103;52.076;113.488;2022-10-26T17:28:55;64.45;;;21.83;;
60241;SDS011;46103;52.076;113.488;2022-10-26T17:31:59;67.93;;;21.63;;
60241;SDS011;46103;52.076;113.488;2022-10-26T17:35:04;59.20;;;20.05;;
60241;SDS011;46103;52.076;113.488;2022-10-26T17:38:08;62.50;;;19.75;;
60241;SDS011;46103;52.076;113.488;2022-10-26T17:41:13;66.30;;;20.75;;
60241;SDS011;46103;52.076;113.488;2022-10-26T17:44:18;66.13;;;22.73;;
60241;SDS011;46103;52.076;113.488;2022-10-26T17:47:23;56.45;;;18.98;;
60241;SDS011;46103;52.076;113.488;2022-10-26T17:50:27;65.57;;;21.45;;
60241;SDS011;46103;52.076;113.488;2022-10-26T17:53:30;67.15;;;22.45;;
60241;SDS011;46103;52.076;113.488;2022-10-26T17:56:35;50.50;;;19.52;;
60241;SDS011;46103;52.076;113.488;2022-10-26T17:59:39;61.70;;;21.20;;
60241;SDS011;46103;52.076;113.488;2022-10-26T18:02:44;60.50;;;22.23;;
60241;SDS011;46103;52.076;113.488;2022-10-26T18:05:50;54.03;;;18.35;;
60241;SDS011;46103;52.076;113.488;2022-10-26T18:08:56;50.38;;;18.10;;
60241;SDS011;46103;52.076;113.488;2022-10-26T18:12:00;45.97;;;16.83;;
60241;SDS011;46103;52.076;113.488;2022-10-26T18:15:04;46.40;;;16.58;;
60241;SDS011;46103;52.076;113.488;2022-10-26T18:18:08;48.88;;;16.52;;
60241;SDS011;46103;52.076;113.488;2022-10-26T18:21:12;36.00;;;13.80;;
60241;SDS011;46103;52.076;113.488;2022-10-26T18:24:16;39.45;;;15.95;;
60241;SDS011;46103;52.076;113.488;2022-10-26T18:27:20;27.20;;;11.60;;
60241;SDS011;46103;52.076;113.488;2022-10-26T18:30:24;39.40;;;12.43;;
60241;SDS011;46103;52.076;113.488;2022-10-26T18:33:28;39.03;;;13.45;;
60241;SDS011;46103;52.076;113.488;2022-10-26T18:36:33;45.75;;;16.95;;
60241;SDS011;46103;52.076;113.488;2022-10-26T18:39:38;50.28;;;16.98;;
60241;SDS011;46103;52.076;113.488;2022-10-26T18:42:42;47.88;;;17.50;;
60241;SDS011;46103;52.076;113.488;2022-10-26T18:45:45;58.15;;;21.20;;
60241;SDS011;46103;52.076;113.488;2022-10-26T18:48:50;63.95;;;21.77;;
60241;SDS011;46103;52.076;113.488;2022-10-26T18:51:54;63.63;;;19.92;;
60241;SDS011;46103;52.076;113.488;2022-10-26T18:54:57;50.60;;;19.33;;
60241;SDS011;46103;52.076;113.488;2022-10-26T18:58:01;58.55;;;22.52;;
60241;SDS011;46103;52.076;113.488;2022-10-26T19:01:10;66.00;;;21.50;;
60241;SDS011;46103;52.076;113.488;2022-10-26T19:04:15;54.75;;;18.83;;
60241;SDS011;46103;52.076;113.488;2022-10-26T19:07:20;60.75;;;21.17;;
60241;SDS011;46103;52.076;113.488;2022-10-26T19:10:23;50.42;;;19.08;;
60241;SDS011;46103;52.076;113.488;2022-10-26T19:13:27;53.45;;;17.35;;
60241;SDS011;46103;52.076;113.488;2022-10-26T19:16:31;59.00;;;19.13;;
60241;SDS011;46103;52.076;113.488;2022-10-26T19:19:47;56.75;;;17.33;;
60241;SDS011;46103;52.076;113.488;2022-10-26T19:22:52;47.85;;;17.83;;
60241;SDS011;46103;52.076;113.488;2022-10-26T19:25:56;51.30;;;18.30;;
60241;SDS011;46103;52.076;113.488;2022-10-26T19:29:01;43.22;;;16.88;;
60241;SDS011;46103;52.076;113.488;2022-10-26T19:32:07;44.38;;;17.10;;
60241;SDS011;46103;52.076;113.488;2022-10-26T19:35:11;58.90;;;19.17;;
60241;SDS011;46103;52.076;113.488;2022-10-26T19:38:15;52.65;;;17.30;;
60241;SDS011;46103;52.076;113.488;2022-10-26T19:41:19;53.50;;;18.58;;
60241;SDS011;46103;52.076;113.488;2022-10-26T19:44:28;65.47;;;20.95;;
60241;SDS011;46103;52.076;113.488;2022-10-26T19:47:32;55.13;;;18.98;;
60241;SDS011;46103;52.076;113.488;2022-10-26T19:50:37;46.22;;;16.48;;
60241;SDS011;46103;52.076;113.488;2022-10-26T19:53:41;66.35;;;21.73;;
60241;SDS011;46103;52.076;113.488;2022-10-26T19:56:46;49.90;;;18.60;;
60241;SDS011;46103;52.076;113.488;2022-10-26T19:59:50;57.22;;;19.70;;
60241;SDS011;46103;52.076;113.488;2022-10-26T20:02:53;65.63;;;21.23;;
60241;SDS011;46103;52.076;113.488;2022-10-26T20:05:58;69.00;;;23.42;;
60241;SDS011;46103;52.076;113.488;2022-10-26T20:09:11;61.47;;;22.17;;
60241;SDS011;46103;52.076;113.488;2022-10-26T20:12:15;51.92;;;19.25;;
60241;SDS011;46103;52.076;113.488;2022-10-26T20:15:19;56.45;;;19.45;;
60241;SDS011;46103;52.076;113.488;2022-10-26T20:18:23;52.47;;;17.65;;